createdAt,value
2023-01-22T00:01:20.199Z,51.82
2023-01-22T00:03:49.775Z,51.99
2023-01-22T00:06:18.081Z,52.14
2023-01-22T00:08:46.904Z,52.70
2023-01-22T00:11:16.330Z,52.19
2023-01-22T00:13:45.029Z,52.56
2023-01-22T00:16:15.499Z,52.39
2023-01-22T00:18:44.183Z,52.51
2023-01-22T00:21:13.917Z,51.99
2023-01-22T00:23:41.829Z,51.09
2023-01-22T00:26:16.402Z,51.67
2023-01-22T00:28:46.058Z,51.19
2023-01-22T00:31:16.504Z,50.76
2023-01-22T00:33:45.662Z,49.24
2023-01-22T00:36:20.154Z,48.43
2023-01-22T00:38:50.578Z,46.39
2023-01-22T00:41:19.931Z,45.75
2023-01-22T00:43:48.138Z,45.92
2023-01-22T00:46:17.933Z,47.00
2023-01-22T00:48:45.836Z,48.46
2023-01-22T00:51:15.860Z,49.13
2023-01-22T00:53:46.638Z,51.20
2023-01-22T00:56:15.186Z,52.85
2023-01-22T00:58:43.199Z,53.70
2023-01-22T01:01:14.537Z,55.17
2023-01-22T01:03:42.748Z,55.51
2023-01-22T01:06:22.135Z,55.61
2023-01-22T01:08:50.489Z,56.00
2023-01-22T01:11:30.267Z,54.89
2023-01-22T01:13:58.167Z,55.00
2023-01-22T01:16:30.033Z,55.71
2023-01-22T01:19:05.889Z,55.34
2023-01-22T01:21:35.015Z,54.55
2023-01-22T01:24:02.973Z,53.96
2023-01-22T01:26:31.416Z,55.72
2023-01-22T01:28:59.282Z,55.67
2023-01-22T01:31:27.674Z,55.06
2023-01-22T01:33:58.599Z,56.46
2023-01-22T01:36:47.100Z,54.19
2023-01-22T01:39:14.675Z,54.16
2023-01-22T01:41:44.457Z,50.73
2023-01-22T01:44:21.023Z,51.98
2023-01-22T01:46:54.515Z,54.35
2023-01-22T01:49:35.348Z,54.19
2023-01-22T01:52:09.571Z,54.25
2023-01-22T01:54:43.159Z,54.09
2023-01-22T01:57:22.406Z,55.75
2023-01-22T01:59:52.054Z,55.83
2023-01-22T02:02:20.925Z,55.99
2023-01-22T02:04:51.495Z,56.52
2023-01-22T02:07:20.845Z,56.36
2023-01-22T02:09:48.790Z,57.57
2023-01-22T02:12:16.999Z,55.64
2023-01-22T02:14:46.838Z,54.82
2023-01-22T02:17:19.209Z,55.17
2023-01-22T02:19:47.826Z,56.20
2023-01-22T02:22:21.411Z,56.45
2023-01-22T02:24:50.375Z,56.10
2023-01-22T02:27:20.793Z,56.96
2023-01-22T02:29:50.118Z,56.21
2023-01-22T02:32:18.821Z,55.83
2023-01-22T02:34:46.720Z,56.67
2023-01-22T02:37:16.027Z,56.96
2023-01-22T02:39:43.883Z,56.36
2023-01-22T02:42:12.457Z,56.22
2023-01-22T02:44:42.001Z,56.20
2023-01-22T02:47:11.278Z,55.87
2023-01-22T02:49:39.163Z,54.98
2023-01-22T02:52:07.951Z,57.07
2023-01-22T02:54:36.616Z,57.60
2023-01-22T02:57:04.857Z,56.61
2023-01-22T02:59:32.767Z,57.10
2023-01-22T03:02:02.332Z,58.21
2023-01-22T03:04:30.208Z,58.85
2023-01-22T03:06:58.386Z,58.64
2023-01-22T03:09:30.082Z,59.21
2023-01-22T03:11:59.251Z,58.80
2023-01-22T03:14:49.722Z,59.34
2023-01-22T03:17:38.167Z,59.77
2023-01-22T03:20:25.218Z,59.99
2023-01-22T03:22:54.403Z,59.44
2023-01-22T03:25:22.257Z,58.37
2023-01-22T03:28:16.656Z,57.84
2023-01-22T03:30:49.617Z,58.23
2023-01-22T03:33:19.157Z,57.57
2023-01-22T03:35:50.176Z,57.51
2023-01-22T03:38:22.613Z,58.04
2023-01-22T03:40:50.539Z,57.55
2023-01-22T03:43:20.377Z,57.96
2023-01-22T03:45:48.691Z,57.59
2023-01-22T03:48:20.979Z,57.58
2023-01-22T03:50:49.378Z,57.49
2023-01-22T03:53:18.804Z,57.95
2023-01-22T03:55:46.716Z,58.96
2023-01-22T03:58:14.898Z,58.72
2023-01-22T04:00:42.811Z,59.78
2023-01-22T04:03:12.349Z,59.77
2023-01-22T04:05:41.571Z,59.92
2023-01-22T04:08:09.867Z,59.61
2023-01-22T04:10:42.887Z,58.83
2023-01-22T04:13:11.163Z,58.93
2023-01-22T04:15:44.917Z,58.75
2023-01-22T04:18:39.247Z,58.83
2023-01-22T04:21:22.050Z,59.89
2023-01-22T04:23:59.160Z,59.72
2023-01-22T04:26:27.115Z,59.41
2023-01-22T04:28:57.427Z,58.40
2023-01-22T04:31:26.397Z,58.62
2023-01-22T04:34:16.044Z,58.19
2023-01-22T04:36:54.217Z,57.64
2023-01-22T04:39:24.544Z,58.61
2023-01-22T04:41:52.467Z,58.84
2023-01-22T04:44:21.099Z,59.12
2023-01-22T04:46:49.125Z,60.25
2023-01-22T04:49:17.331Z,60.61
2023-01-22T04:51:46.248Z,59.73
2023-01-22T04:54:14.457Z,58.63
2023-01-22T04:56:42.328Z,56.70
2023-01-22T04:59:11.407Z,57.50
2023-01-22T05:01:42.697Z,57.10
2023-01-22T05:04:11.333Z,57.40
2023-01-22T05:06:39.237Z,57.23
2023-01-22T05:09:07.479Z,57.07
2023-01-22T05:11:50.404Z,56.43
2023-01-22T05:14:19.047Z,56.92
2023-01-22T05:16:49.600Z,57.14
2023-01-22T05:19:17.967Z,57.21
2023-01-22T05:21:46.220Z,57.41
2023-01-22T05:24:18.820Z,57.48
2023-01-22T05:26:46.818Z,55.97
2023-01-22T05:29:20.143Z,56.00
2023-01-22T05:32:14.087Z,57.19
2023-01-22T05:34:47.098Z,57.56
2023-01-22T05:37:15.057Z,57.86
2023-01-22T05:39:43.405Z,57.78
2023-01-22T05:42:16.300Z,56.72
2023-01-22T05:44:48.847Z,56.86
2023-01-22T05:47:20.122Z,57.22
2023-01-22T05:50:10.198Z,57.59
2023-01-22T05:52:38.048Z,58.07
2023-01-22T05:55:06.738Z,57.92
2023-01-22T05:57:41.898Z,58.59
2023-01-22T06:00:12.461Z,57.93
2023-01-22T06:02:44.583Z,58.26
2023-01-22T06:05:15.217Z,58.31
2023-01-22T06:07:45.688Z,58.13
2023-01-22T06:10:13.957Z,57.49
2023-01-22T06:12:47.580Z,57.31
2023-01-22T06:15:16.063Z,58.09
2023-01-22T06:17:49.243Z,56.85
2023-01-22T06:20:17.762Z,58.10
2023-01-22T06:22:45.932Z,58.45
2023-01-22T06:25:14.233Z,58.08
2023-01-22T06:27:59.742Z,59.50
2023-01-22T06:30:28.049Z,59.06
2023-01-22T06:32:56.194Z,58.93
2023-01-22T06:35:25.721Z,58.86
2023-01-22T06:37:54.380Z,59.06
2023-01-22T06:40:24.090Z,59.59
2023-01-22T06:42:52.099Z,59.40
2023-01-22T06:45:21.062Z,60.04
2023-01-22T06:47:53.361Z,59.31
2023-01-22T06:50:21.543Z,58.31
2023-01-22T06:52:49.441Z,58.41
2023-01-22T06:55:18.746Z,58.98
2023-01-22T06:57:47.303Z,59.38
2023-01-22T07:00:16.161Z,60.32
2023-01-22T07:02:44.411Z,60.02
2023-01-22T07:05:12.794Z,59.44
2023-01-22T07:07:40.632Z,58.35
2023-01-22T07:10:10.161Z,58.25
2023-01-22T07:12:38.072Z,60.59
2023-01-22T07:15:08.139Z,59.98
2023-01-22T07:17:37.699Z,59.79
2023-01-22T07:20:06.158Z,58.99
2023-01-22T07:22:34.071Z,58.88
2023-01-22T07:25:02.374Z,60.31
2023-01-22T07:27:32.690Z,60.13
2023-01-22T07:30:01.160Z,60.11
2023-01-22T07:32:29.162Z,60.03
2023-01-22T07:34:57.333Z,59.96
2023-01-22T07:37:25.232Z,60.25
2023-01-22T07:39:54.077Z,59.71
2023-01-22T07:42:21.979Z,60.14
2023-01-22T07:44:50.322Z,58.65
2023-01-22T07:47:18.315Z,58.63
2023-01-22T07:49:46.599Z,57.53
2023-01-22T07:52:14.579Z,57.95
2023-01-22T07:54:42.906Z,57.06
2023-01-22T07:57:15.762Z,57.09
2023-01-22T07:59:44.028Z,56.75
2023-01-22T08:02:16.453Z,56.85
2023-01-22T08:04:44.640Z,57.36
2023-01-22T08:07:17.045Z,57.26
2023-01-22T08:09:46.269Z,55.79
2023-01-22T08:12:14.078Z,54.51
2023-01-22T08:14:42.262Z,53.93
2023-01-22T08:17:10.122Z,52.65
2023-01-22T08:19:38.332Z,52.78
2023-01-22T08:22:06.443Z,51.11
2023-01-22T08:24:34.871Z,50.21
2023-01-22T08:27:03.311Z,48.63
2023-01-22T08:29:31.574Z,47.33
2023-01-22T08:31:59.491Z,46.87
2023-01-22T08:34:27.994Z,46.00
2023-01-22T08:36:56.093Z,46.38
2023-01-22T08:39:24.463Z,47.45
2023-01-22T08:41:57.511Z,47.38
2023-01-22T08:44:27.160Z,43.99
2023-01-22T08:46:55.023Z,42.94
2023-01-22T08:49:23.322Z,41.60
2023-01-22T08:51:51.200Z,41.16
2023-01-22T08:54:21.713Z,40.12
2023-01-22T08:56:49.781Z,39.10
2023-01-22T08:59:17.919Z,39.18
2023-01-22T09:01:45.837Z,38.96
2023-01-22T09:04:13.994Z,38.03
2023-01-22T09:06:43.059Z,38.67
2023-01-22T09:09:12.602Z,38.47
2023-01-22T09:11:41.055Z,38.55
2023-01-22T09:14:10.199Z,37.49
2023-01-22T09:16:38.314Z,36.96
2023-01-22T09:19:07.919Z,36.91
2023-01-22T09:21:37.566Z,37.50
2023-01-22T09:24:07.034Z,37.23
2023-01-22T09:26:37.420Z,37.14
2023-01-22T09:29:07.318Z,37.30
2023-01-22T09:31:37.158Z,37.39
2023-01-22T09:34:06.560Z,37.73
2023-01-22T09:36:34.579Z,37.77
2023-01-22T09:39:02.769Z,38.02
2023-01-22T09:41:38.997Z,39.09
2023-01-22T09:44:20.291Z,38.93
2023-01-22T09:47:04.058Z,38.77
2023-01-22T09:49:37.164Z,39.37
2023-01-22T09:52:06.639Z,39.31
2023-01-22T09:54:34.950Z,39.72
2023-01-22T09:57:06.368Z,39.18
2023-01-22T09:59:53.099Z,39.59
2023-01-22T10:02:35.448Z,39.59
2023-01-22T10:05:32.133Z,39.83
2023-01-22T10:08:21.889Z,39.93
2023-01-22T10:10:52.270Z,39.89
2023-01-22T10:13:27.730Z,39.43
2023-01-22T10:15:56.829Z,39.32
2023-01-22T10:18:37.808Z,39.41
2023-01-22T10:21:18.652Z,38.67
2023-01-22T10:23:47.299Z,38.69
2023-01-22T10:26:25.400Z,38.70
2023-01-22T10:28:58.582Z,38.99
2023-01-22T10:31:35.840Z,39.27
2023-01-22T10:34:31.561Z,39.28
2023-01-22T10:37:15.348Z,38.22
2023-01-22T10:39:46.397Z,37.14
2023-01-22T10:42:23.314Z,37.56
2023-01-22T10:44:57.130Z,37.11
2023-01-22T10:47:27.802Z,36.86
2023-01-22T10:50:12.801Z,35.99
2023-01-22T10:52:48.165Z,34.76
2023-01-22T10:55:28.500Z,34.48
2023-01-22T10:58:05.040Z,33.62
2023-01-22T11:00:46.660Z,34.30
2023-01-22T11:03:39.759Z,33.95
2023-01-22T11:06:15.598Z,33.28
2023-01-22T11:08:57.421Z,33.00
2023-01-22T11:11:32.183Z,33.64
2023-01-22T11:14:00.381Z,33.25
2023-01-22T11:16:32.470Z,32.34
2023-01-22T11:19:16.788Z,32.15
2023-01-22T11:21:50.700Z,31.98
2023-01-22T11:24:26.437Z,31.04
2023-01-22T11:27:20.811Z,31.04
2023-01-22T11:29:52.059Z,31.48
2023-01-22T11:32:22.981Z,31.17
2023-01-22T11:35:15.246Z,29.92
2023-01-22T11:38:17.815Z,29.49
2023-01-22T11:41:17.046Z,30.18
2023-01-22T11:43:47.884Z,29.28
2023-01-22T11:46:41.147Z,28.31
2023-01-22T11:49:19.590Z,29.22
2023-01-22T11:52:19.248Z,29.40
2023-01-22T11:55:22.957Z,29.73
2023-01-22T11:58:01.727Z,30.26
2023-01-22T12:00:53.968Z,29.72
2023-01-22T12:04:00.872Z,29.32
2023-01-22T12:06:28.838Z,28.05
2023-01-22T12:09:04.628Z,27.59
2023-01-22T12:11:41.253Z,28.57
2023-01-22T12:14:27.786Z,28.15
2023-01-22T12:17:36.319Z,27.97
2023-01-22T12:20:32.211Z,27.71
2023-01-22T12:23:08.931Z,28.07
2023-01-22T12:25:44.389Z,27.16
2023-01-22T12:28:15.590Z,25.99
2023-01-22T12:31:14.464Z,26.32
2023-01-22T12:33:44.267Z,25.84
2023-01-22T12:36:19.948Z,25.33
2023-01-22T12:39:15.392Z,26.25
2023-01-22T12:42:02.193Z,26.99
2023-01-22T12:45:14.077Z,26.12
2023-01-22T12:47:45.510Z,26.09
2023-01-22T12:50:22.146Z,25.78
2023-01-22T12:53:02.879Z,25.94
2023-01-22T12:55:44.075Z,26.33
2023-01-22T12:58:23.563Z,26.13
2023-01-22T13:01:03.421Z,25.33
2023-01-22T13:03:33.474Z,25.89
2023-01-22T13:06:04.359Z,26.67
2023-01-22T13:08:42.565Z,26.76
2023-01-22T13:11:14.172Z,26.67
2023-01-22T13:13:53.979Z,26.33
2023-01-22T13:16:35.532Z,26.03
2023-01-22T13:19:28.564Z,25.99
2023-01-22T13:22:01.028Z,26.47
2023-01-22T13:24:29.462Z,25.70
2023-01-22T13:27:03.246Z,25.58
2023-01-22T13:29:37.935Z,26.04
2023-01-22T13:32:16.864Z,25.76
2023-01-22T13:34:45.306Z,25.49
2023-01-22T13:37:27.264Z,25.11
2023-01-22T13:39:55.622Z,25.86
2023-01-22T13:42:24.978Z,25.89
2023-01-22T13:44:53.387Z,25.45
2023-01-22T13:47:29.542Z,25.21
2023-01-22T13:49:59.550Z,25.79
2023-01-22T13:52:33.589Z,26.13
2023-01-22T13:55:07.065Z,26.43
2023-01-22T13:57:35.134Z,26.10
2023-01-22T14:00:04.734Z,26.06
2023-01-22T14:02:35.869Z,26.99
2023-01-22T14:05:04.563Z,27.35
2023-01-22T14:07:35.190Z,27.29
2023-01-22T14:10:33.961Z,27.85
2023-01-22T14:13:05.066Z,28.67
2023-01-22T14:15:34.719Z,29.47
2023-01-22T14:18:21.465Z,30.68
2023-01-22T14:20:49.743Z,30.60
2023-01-22T14:23:17.639Z,31.61
2023-01-22T14:25:51.338Z,32.50
2023-01-22T14:28:20.127Z,32.89
2023-01-22T14:30:49.877Z,33.16
2023-01-22T14:33:32.516Z,33.21
2023-01-22T14:36:01.402Z,33.97
2023-01-22T14:38:29.511Z,34.45
2023-01-22T14:40:57.912Z,33.99
2023-01-22T14:43:25.926Z,34.34
2023-01-22T14:45:55.235Z,35.08
2023-01-22T14:48:23.542Z,36.25
2023-01-22T14:50:52.022Z,35.83
2023-01-22T14:53:19.964Z,36.47
2023-01-22T14:55:48.292Z,37.45
2023-01-22T14:58:16.612Z,36.75
2023-01-22T15:00:45.775Z,36.63
2023-01-22T15:03:13.875Z,37.22
2023-01-22T15:05:42.152Z,37.63
2023-01-22T15:08:10.167Z,37.06
2023-01-22T15:10:38.532Z,37.30
2023-01-22T15:13:06.514Z,37.42
2023-01-22T15:15:34.862Z,37.76
2023-01-22T15:18:02.784Z,38.01
2023-01-22T15:20:31.134Z,37.64
2023-01-22T15:22:59.183Z,38.19
2023-01-22T15:25:27.571Z,38.23
2023-01-22T15:27:55.573Z,38.42
2023-01-22T15:30:23.947Z,38.73
2023-01-22T15:32:51.901Z,40.42
2023-01-22T15:35:20.213Z,41.12
2023-01-22T15:37:48.721Z,41.42
2023-01-22T15:40:17.848Z,41.94
2023-01-22T15:42:46.093Z,42.07
2023-01-22T15:45:15.538Z,42.92
2023-01-22T15:47:43.618Z,42.79
2023-01-22T15:50:12.154Z,42.25
2023-01-22T15:52:40.101Z,42.84
2023-01-22T15:55:08.848Z,43.21
2023-01-22T15:57:36.888Z,43.58
2023-01-22T16:00:07.863Z,43.75
2023-01-22T16:02:40.408Z,44.14
2023-01-22T16:05:09.027Z,43.27
2023-01-22T16:07:36.953Z,44.25
2023-01-22T16:10:06.183Z,43.53
2023-01-22T16:12:35.102Z,43.42
2023-01-22T16:15:03.562Z,43.74
2023-01-22T16:17:31.513Z,43.93
2023-01-22T16:19:59.821Z,44.24
2023-01-22T16:22:28.023Z,44.36
2023-01-22T16:24:56.344Z,44.75
2023-01-22T16:27:24.348Z,44.33
2023-01-22T16:29:52.574Z,44.62
2023-01-22T16:32:20.691Z,43.95
2023-01-22T16:34:50.190Z,43.43
2023-01-22T16:37:18.128Z,43.30
2023-01-22T16:39:46.311Z,43.57
2023-01-22T16:42:14.285Z,43.69
2023-01-22T16:44:42.726Z,43.28
2023-01-22T16:47:10.823Z,43.40
2023-01-22T16:49:39.091Z,43.30
2023-01-22T16:52:21.884Z,43.41
2023-01-22T16:54:51.532Z,43.01
2023-01-22T16:57:20.377Z,42.83
2023-01-22T16:59:49.721Z,43.09
2023-01-22T17:02:19.482Z,43.30
2023-01-22T17:04:48.218Z,42.78
2023-01-22T17:07:31.870Z,42.38
2023-01-22T17:10:01.589Z,42.14
2023-01-22T17:12:29.602Z,41.50
2023-01-22T17:14:58.414Z,41.66
2023-01-22T17:17:26.617Z,41.87
2023-01-22T17:19:55.416Z,41.58
2023-01-22T17:22:24.419Z,41.66
2023-01-22T17:24:52.879Z,41.65
2023-01-22T17:27:21.732Z,41.23
2023-01-22T17:29:50.047Z,41.09
2023-01-22T17:32:17.991Z,41.26
2023-01-22T17:34:47.589Z,41.45
2023-01-22T17:37:15.583Z,41.42
2023-01-22T17:39:46.308Z,41.33
2023-01-22T17:42:14.358Z,41.51
2023-01-22T17:44:42.681Z,41.40
2023-01-22T17:47:11.325Z,41.44
2023-01-22T17:49:39.771Z,41.44
2023-01-22T17:52:09.503Z,41.08
2023-01-22T17:54:38.629Z,40.68
2023-01-22T17:57:07.163Z,41.27
2023-01-22T17:59:35.504Z,41.75
2023-01-22T18:02:03.828Z,41.81
2023-01-22T18:04:34.774Z,41.79
2023-01-22T18:07:04.028Z,42.11
2023-01-22T18:09:32.404Z,42.09
2023-01-22T18:12:00.637Z,42.12
2023-01-22T18:14:34.208Z,42.44
2023-01-22T18:17:02.760Z,42.72
2023-01-22T18:19:30.759Z,42.77
2023-01-22T18:21:59.091Z,43.12
2023-01-22T18:24:27.547Z,43.33
2023-01-22T18:26:58.868Z,43.52
2023-01-22T18:29:27.389Z,43.84
2023-01-22T18:31:55.758Z,44.62
2023-01-22T18:34:24.152Z,45.53
2023-01-22T18:36:52.542Z,45.09
2023-01-22T18:39:21.445Z,45.88
2023-01-22T18:41:49.809Z,46.85
2023-01-22T18:44:19.773Z,46.99
2023-01-22T18:46:52.819Z,47.68
2023-01-22T18:49:20.748Z,47.84
2023-01-22T18:51:49.627Z,47.75
2023-01-22T18:54:17.733Z,48.32
2023-01-22T18:56:47.440Z,48.36
2023-01-22T18:59:18.181Z,48.61
2023-01-22T19:01:51.976Z,48.50
2023-01-22T19:04:22.178Z,48.57
2023-01-22T19:06:52.999Z,48.75
2023-01-22T19:09:21.800Z,48.98
2023-01-22T19:11:52.641Z,48.85
2023-01-22T19:14:22.536Z,49.26
2023-01-22T19:16:53.576Z,48.79
2023-01-22T19:19:25.133Z,48.41
2023-01-22T19:21:55.639Z,48.45
2023-01-22T19:24:28.464Z,48.45
2023-01-22T19:26:57.736Z,47.96
2023-01-22T19:29:26.749Z,47.93
2023-01-22T19:31:55.962Z,47.77
2023-01-22T19:34:24.955Z,47.91
2023-01-22T19:37:01.665Z,48.03
2023-01-22T19:39:31.349Z,48.24
2023-01-22T19:42:05.377Z,48.40
2023-01-22T19:44:36.269Z,48.82
2023-01-22T19:47:04.368Z,48.84
2023-01-22T19:49:32.951Z,49.26
2023-01-22T19:52:00.958Z,49.20
2023-01-22T19:54:29.290Z,49.69
2023-01-22T19:56:57.229Z,49.67
2023-01-22T19:59:25.608Z,49.66
2023-01-22T20:01:54.572Z,49.78
2023-01-22T20:04:25.801Z,48.95
2023-01-22T20:06:59.979Z,49.53
2023-01-22T20:09:30.050Z,49.44
2023-01-22T20:11:58.417Z,50.50
2023-01-22T20:14:30.553Z,51.82
2023-01-22T20:17:00.410Z,51.88
2023-01-22T20:19:30.674Z,50.54
2023-01-22T20:22:00.842Z,51.33
2023-01-22T20:24:29.188Z,51.46
2023-01-22T20:26:58.749Z,51.22
2023-01-22T20:29:27.618Z,49.46
2023-01-22T20:31:56.929Z,48.46
2023-01-22T20:34:26.119Z,47.67
2023-01-22T20:36:54.092Z,46.01
2023-01-22T20:39:22.452Z,46.03
2023-01-22T20:41:50.491Z,45.93
2023-01-22T20:44:18.883Z,46.72
2023-01-22T20:46:48.989Z,44.93
2023-01-22T20:49:17.330Z,45.42
2023-01-22T20:51:45.381Z,47.30
2023-01-22T20:54:14.133Z,48.31
2023-01-22T20:56:42.163Z,49.67
2023-01-22T20:59:14.131Z,50.91
2023-01-22T21:01:42.273Z,50.44
2023-01-22T21:04:12.948Z,50.61
2023-01-22T21:06:41.635Z,51.39
2023-01-22T21:09:10.884Z,52.17
2023-01-22T21:11:41.207Z,52.25
2023-01-22T21:14:16.088Z,51.92
2023-01-22T21:16:44.847Z,51.74
2023-01-22T21:19:18.069Z,52.58
2023-01-22T21:21:46.718Z,52.81
2023-01-22T21:24:15.573Z,52.97
2023-01-22T21:26:43.758Z,54.21
2023-01-22T21:29:18.296Z,54.62
2023-01-22T21:31:50.342Z,54.84
2023-01-22T21:34:21.004Z,53.94
2023-01-22T21:36:50.437Z,54.48
2023-01-22T21:39:20.874Z,54.07
2023-01-22T21:41:49.277Z,54.59
2023-01-22T21:44:38.466Z,55.57
2023-01-22T21:47:06.468Z,54.78
2023-01-22T21:49:36.394Z,56.00
2023-01-22T21:52:08.079Z,55.79
2023-01-22T21:54:39.050Z,55.38
2023-01-22T21:57:09.274Z,56.09
2023-01-22T21:59:37.514Z,56.82
2023-01-22T22:02:06.899Z,56.94
2023-01-22T22:04:35.298Z,56.34
2023-01-22T22:07:03.295Z,56.53
2023-01-22T22:09:31.613Z,56.33
2023-01-22T22:12:00.968Z,56.73
2023-01-22T22:14:30.361Z,56.50
2023-01-22T22:16:59.271Z,56.34
2023-01-22T22:19:29.080Z,57.18
2023-01-22T22:21:57.188Z,56.94
2023-01-22T22:24:25.642Z,56.98
2023-01-22T22:26:53.509Z,57.37
2023-01-22T22:29:21.713Z,56.89
2023-01-22T22:31:49.656Z,57.21
2023-01-22T22:34:18.925Z,57.39
2023-01-22T22:36:46.828Z,57.33
2023-01-22T22:39:15.117Z,58.03
2023-01-22T22:41:43.033Z,57.44
2023-01-22T22:44:11.810Z,56.77
2023-01-22T22:46:39.912Z,56.72
2023-01-22T22:49:12.246Z,55.92
2023-01-22T22:51:42.975Z,56.52
2023-01-22T22:54:20.363Z,56.83
2023-01-22T22:56:49.932Z,56.50
2023-01-22T22:59:21.287Z,57.07
2023-01-22T23:01:50.215Z,56.61
2023-01-22T23:04:18.554Z,56.72
2023-01-22T23:06:47.385Z,57.69
2023-01-22T23:09:19.853Z,57.00
2023-01-22T23:11:52.104Z,57.19
2023-01-22T23:14:20.458Z,56.66
2023-01-22T23:16:49.146Z,56.44
2023-01-22T23:19:24.722Z,56.63
2023-01-22T23:21:56.696Z,56.06
2023-01-22T23:24:25.644Z,56.58
2023-01-22T23:26:53.736Z,56.79
2023-01-22T23:29:24.663Z,57.24
2023-01-22T23:31:53.066Z,57.52
2023-01-22T23:34:22.091Z,58.59
2023-01-22T23:36:51.069Z,57.98
2023-01-22T23:39:21.002Z,58.30
2023-01-22T23:41:49.209Z,58.06
2023-01-22T23:44:17.892Z,58.21
2023-01-22T23:46:46.073Z,58.34
2023-01-22T23:49:14.499Z,59.13
2023-01-22T23:51:44.672Z,58.99
2023-01-22T23:54:13.205Z,59.71
2023-01-22T23:56:41.109Z,58.54
2023-01-22T23:59:11.451Z,58.09
